Milwaukee, Wisconsin
Traffic Map
Current Weather Conditions
Milwaukee, Wisconsin
Few Clouds
Few Clouds
75°
Feels Like: 75°
Wind Chill: 75° Ceiling: Unl
Heat Index: 75° Visibility: 10mi
Dew Point: 66° Wind: 6mph
Humidity: 73% Direction: 180° (S)
Pressure: 30.01in Gusts: 0mph
Raw Report DataKMKE 281252Z 18005KT 10SM FEW250 24/19 A3001 RMK AO2 SLP156 T02390189
Traffic Incident Summary
Active as of:
Severity:
Category:
InformationThere was an issue retrieving the traffic information for this location. Please try a different location or try again shortly.
Advertisements
Track Severe Weather on mobile